createdAt,value
2023-01-04T00:02:39.000Z,4.13
2023-01-04T00:05:27.625Z,4.03
2023-01-04T00:08:16.125Z,4.53
2023-01-04T00:11:06.573Z,4.83
2023-01-04T00:13:59.295Z,4.20
2023-01-04T00:16:49.333Z,5.17
2023-01-04T00:19:37.940Z,4.83
2023-01-04T00:22:26.628Z,5.77
2023-01-04T00:25:15.299Z,4.60
2023-01-04T00:28:04.003Z,4.83
2023-01-04T00:30:52.755Z,3.93
2023-01-04T00:33:43.287Z,4.47
2023-01-04T00:36:32.737Z,4.77
2023-01-04T00:39:22.195Z,4.00
2023-01-04T00:42:10.739Z,3.77
2023-01-04T00:44:59.293Z,5.50
2023-01-04T00:47:47.754Z,4.17
2023-01-04T00:50:37.830Z,4.93
2023-01-04T00:53:26.488Z,4.07
2023-01-04T00:56:15.056Z,5.17
2023-01-04T00:59:04.892Z,5.47
2023-01-04T01:01:53.784Z,4.77
2023-01-04T01:04:42.535Z,3.77
2023-01-04T01:07:32.413Z,3.87
2023-01-04T01:10:21.138Z,4.20
2023-01-04T01:13:09.810Z,4.40
2023-01-04T01:16:02.970Z,4.63
2023-01-04T01:18:52.093Z,4.23
2023-01-04T01:21:40.666Z,5.00
2023-01-04T01:24:30.675Z,5.10
2023-01-04T01:27:19.526Z,3.53
2023-01-04T01:30:09.225Z,3.93
2023-01-04T01:32:57.782Z,5.33
2023-01-04T01:35:46.183Z,3.10
2023-01-04T01:38:34.860Z,3.23
2023-01-04T01:41:27.051Z,4.20
2023-01-04T01:44:49.305Z,3.93
2023-01-04T01:47:42.865Z,6.50
2023-01-04T01:50:35.864Z,3.37
2023-01-04T01:53:27.592Z,4.70
2023-01-04T01:56:18.656Z,4.43
2023-01-04T01:59:10.739Z,3.17
2023-01-04T02:01:59.408Z,4.83
2023-01-04T02:04:51.815Z,3.87
2023-01-04T02:07:40.420Z,3.57
2023-01-04T02:10:29.166Z,6.73
2023-01-04T02:13:21.824Z,3.33
2023-01-04T02:16:20.642Z,4.30
2023-01-04T02:19:28.847Z,5.83
2023-01-04T02:22:39.398Z,6.00
2023-01-04T02:26:00.369Z,4.10
2023-01-04T02:29:14.547Z,4.00
2023-01-04T02:32:06.321Z,4.97
2023-01-04T02:35:02.490Z,5.87
2023-01-04T02:37:58.863Z,8.80
2023-01-04T02:40:52.707Z,7.20
2023-01-04T02:44:03.424Z,7.93
2023-01-04T02:46:56.947Z,7.73
2023-01-04T02:50:05.141Z,7.63
2023-01-04T02:52:53.981Z,8.40
2023-01-04T02:55:52.823Z,8.97
2023-01-04T02:59:03.740Z,9.87
2023-01-04T03:02:18.233Z,10.23
2023-01-04T03:05:52.085Z,9.93
2023-01-04T03:08:44.855Z,11.20
2023-01-04T03:11:59.324Z,11.23
2023-01-04T03:15:00.249Z,12.67
2023-01-04T03:17:53.395Z,12.93
2023-01-04T03:20:44.308Z,14.83
2023-01-04T03:23:54.472Z,14.93
2023-01-04T03:27:04.494Z,15.93
2023-01-04T03:30:17.282Z,16.40
2023-01-04T03:33:29.006Z,16.50
2023-01-04T03:36:28.138Z,19.50
2023-01-04T03:39:42.076Z,18.53
2023-01-04T03:42:54.393Z,20.23
2023-01-04T03:46:05.584Z,19.67
2023-01-04T03:48:59.983Z,22.70
2023-01-04T03:51:53.069Z,21.60
2023-01-04T03:54:45.492Z,21.00
2023-01-04T03:57:35.515Z,23.03
2023-01-04T04:00:24.665Z,23.90
2023-01-04T04:03:13.275Z,22.70
2023-01-04T04:06:19.499Z,20.90
2023-01-04T04:09:09.393Z,21.43
2023-01-04T04:11:58.123Z,22.33
2023-01-04T04:14:46.652Z,21.20
2023-01-04T04:17:35.221Z,22.13
2023-01-04T04:20:23.920Z,21.77
2023-01-04T04:23:12.372Z,23.20
2023-01-04T04:26:02.507Z,20.47
2023-01-04T04:28:51.187Z,20.13
2023-01-04T04:31:39.977Z,20.87
2023-01-04T04:34:28.565Z,21.27
2023-01-04T04:37:17.069Z,21.33
2023-01-04T04:40:06.227Z,21.00
2023-01-04T04:42:55.373Z,19.60
2023-01-04T04:45:44.556Z,18.67
2023-01-04T04:48:33.225Z,19.23
2023-01-04T04:51:21.799Z,17.77
2023-01-04T04:54:12.937Z,18.10
2023-01-04T04:57:01.545Z,16.53
2023-01-04T04:59:51.446Z,17.97
2023-01-04T05:02:40.269Z,15.00
2023-01-04T05:05:29.634Z,14.97
2023-01-04T05:08:18.104Z,14.47
2023-01-04T05:11:08.412Z,15.43
2023-01-04T05:13:55.977Z,13.30
2023-01-04T05:16:46.170Z,13.63
2023-01-04T05:19:34.740Z,13.23
2023-01-04T05:22:23.238Z,14.70
2023-01-04T05:25:12.205Z,12.53
2023-01-04T05:28:01.281Z,12.57
2023-01-04T05:30:53.649Z,11.50
2023-01-04T05:33:43.656Z,11.10
2023-01-04T05:36:32.298Z,11.40
2023-01-04T05:39:20.972Z,10.80
2023-01-04T05:42:27.261Z,10.30
2023-01-04T05:45:16.584Z,10.27
2023-01-04T05:48:05.657Z,10.20
2023-01-04T05:50:55.642Z,9.13
2023-01-04T05:53:44.156Z,8.50
2023-01-04T05:56:32.686Z,8.60
2023-01-04T05:59:21.539Z,7.67
2023-01-04T06:02:17.093Z,7.30
2023-01-04T06:05:06.353Z,8.93
2023-01-04T06:07:56.181Z,6.90
2023-01-04T06:10:44.689Z,6.63
2023-01-04T06:13:33.325Z,6.73
2023-01-04T06:16:21.939Z,6.10
2023-01-04T06:19:10.703Z,6.07
2023-01-04T06:21:59.693Z,5.20
2023-01-04T06:24:50.113Z,5.90
2023-01-04T06:27:38.783Z,6.00
2023-01-04T06:30:29.054Z,5.47
2023-01-04T06:33:17.596Z,5.27
2023-01-04T06:36:07.021Z,4.97
2023-01-04T06:38:58.001Z,5.20
2023-01-04T06:41:47.968Z,4.63
2023-01-04T06:44:36.521Z,4.40
2023-01-04T06:47:25.135Z,4.20
2023-01-04T06:50:13.737Z,5.10
2023-01-04T06:53:02.669Z,6.03
2023-01-04T06:55:51.278Z,4.70
2023-01-04T06:58:41.380Z,6.30
2023-01-04T07:01:30.109Z,2.37
2023-01-04T07:04:18.876Z,1.50
2023-01-04T07:07:07.522Z,2.93
2023-01-04T07:09:56.090Z,2.40
2023-01-04T07:12:44.617Z,1.77
2023-01-04T07:15:39.342Z,2.07
2023-01-04T07:18:28.871Z,2.20
2023-01-04T07:21:17.464Z,2.70
2023-01-04T07:24:06.103Z,1.97
2023-01-04T07:26:54.838Z,1.37
2023-01-04T07:29:44.319Z,1.63
2023-01-04T07:32:34.239Z,2.90
2023-01-04T07:35:23.598Z,1.53
2023-01-04T07:38:12.467Z,2.10
2023-01-04T07:41:01.282Z,4.10
2023-01-04T07:43:49.833Z,3.40
2023-01-04T07:46:39.330Z,1.17
2023-01-04T07:49:29.286Z,1.87
2023-01-04T07:52:17.901Z,3.17
2023-01-04T07:55:07.310Z,1.60
2023-01-04T07:57:55.911Z,2.23
2023-01-04T08:00:44.671Z,3.07
2023-01-04T08:03:33.253Z,3.20
2023-01-04T08:06:23.669Z,1.73
2023-01-04T08:09:13.078Z,2.63
2023-01-04T08:12:02.566Z,1.17
2023-01-04T08:14:51.265Z,1.73
2023-01-04T08:17:39.811Z,1.50
2023-01-04T08:20:28.283Z,1.70
2023-01-04T08:23:18.541Z,2.97
2023-01-04T08:26:08.778Z,2.50
2023-01-04T08:28:57.782Z,3.10
2023-01-04T08:31:46.695Z,2.63
2023-01-04T08:34:35.451Z,1.97
2023-01-04T08:37:23.997Z,2.57
2023-01-04T08:40:14.142Z,2.10
2023-01-04T08:43:02.650Z,1.30
2023-01-04T08:45:51.227Z,1.70
2023-01-04T08:48:41.101Z,1.63
2023-01-04T08:51:29.740Z,2.70
2023-01-04T08:54:19.057Z,1.90
2023-01-04T08:57:08.989Z,2.20
2023-01-04T08:59:57.692Z,3.07
2023-01-04T09:02:46.245Z,6.07
2023-01-04T09:05:34.914Z,2.27
2023-01-04T09:08:23.955Z,1.00
2023-01-04T09:11:15.095Z,3.40
2023-01-04T09:14:08.441Z,3.53
2023-01-04T09:16:57.420Z,1.70
2023-01-04T09:19:45.979Z,2.77
2023-01-04T09:22:34.626Z,2.83
2023-01-04T09:25:23.199Z,4.00
2023-01-04T09:28:11.892Z,1.97
2023-01-04T09:31:06.388Z,3.23
2023-01-04T09:37:04.744Z,1.53
2023-01-04T09:39:53.382Z,2.13
2023-01-04T09:42:45.542Z,2.00
2023-01-04T09:45:34.095Z,1.00
2023-01-04T09:48:29.263Z,2.60
2023-01-04T09:51:21.203Z,1.17
2023-01-04T09:54:17.143Z,1.13
2023-01-04T09:57:06.658Z,3.33
2023-01-04T10:00:00.635Z,4.90
2023-01-04T10:02:56.027Z,2.60
2023-01-04T10:05:46.374Z,3.47
2023-01-04T10:08:36.027Z,2.63
2023-01-04T10:11:37.594Z,3.17
2023-01-04T10:14:44.813Z,1.67
2023-01-04T10:21:32.777Z,2.83
2023-01-04T10:24:42.702Z,2.23
2023-01-04T10:27:42.864Z,1.20
2023-01-04T10:30:40.742Z,2.03
2023-01-04T10:33:36.092Z,1.53
2023-01-04T10:36:32.600Z,4.03
2023-01-04T10:39:32.045Z,3.07
2023-01-04T10:42:32.906Z,4.57
2023-01-04T10:45:31.329Z,1.40
2023-01-04T10:48:27.010Z,3.47
2023-01-04T10:51:22.377Z,3.00
2023-01-04T10:54:20.600Z,2.37
2023-01-04T10:57:12.313Z,2.07
2023-01-04T11:00:04.730Z,1.27
2023-01-04T11:03:08.262Z,2.30
2023-01-04T11:06:09.017Z,4.33
2023-01-04T11:09:00.518Z,1.87
2023-01-04T11:11:51.338Z,3.30
2023-01-04T11:14:40.011Z,1.57
2023-01-04T11:17:29.391Z,3.63
2023-01-04T11:20:18.120Z,2.90
2023-01-04T11:23:10.560Z,1.90
2023-01-04T11:26:02.165Z,4.10
2023-01-04T11:28:56.005Z,2.97
2023-01-04T11:31:50.007Z,3.10
2023-01-04T11:34:47.803Z,0.93
2023-01-04T11:37:37.814Z,1.87
2023-01-04T11:40:28.141Z,1.73
2023-01-04T11:43:19.430Z,2.73
2023-01-04T11:46:24.336Z,2.63
2023-01-04T11:49:20.578Z,4.83
2023-01-04T11:52:32.881Z,2.40
2023-01-04T11:55:26.008Z,14.40
2023-01-04T11:58:16.557Z,1.77
2023-01-04T12:01:05.315Z,5.10
2023-01-04T12:03:55.420Z,14.13
2023-01-04T12:06:49.345Z,6.40
2023-01-04T12:09:38.101Z,5.47
2023-01-04T12:12:30.831Z,4.30
2023-01-04T12:15:27.572Z,1.43
2023-01-04T12:18:20.218Z,2.53
2023-01-04T12:21:17.721Z,3.83
2023-01-04T12:24:07.837Z,2.70
2023-01-04T12:26:57.076Z,5.00
2023-01-04T12:30:00.399Z,5.00
2023-01-04T12:32:49.045Z,2.40
2023-01-04T12:36:04.977Z,2.50
2023-01-04T12:39:06.123Z,1.53
2023-01-04T12:42:27.112Z,2.70
2023-01-04T12:45:18.045Z,1.30
2023-01-04T12:48:53.632Z,1.47
2023-01-04T12:51:51.896Z,1.33
2023-01-04T12:54:54.504Z,1.53
2023-01-04T12:57:43.292Z,1.40
2023-01-04T13:01:05.537Z,1.60
2023-01-04T13:04:04.606Z,2.57
2023-01-04T13:06:54.011Z,1.30
2023-01-04T13:09:50.832Z,2.17
2023-01-04T13:12:56.995Z,1.97
2023-01-04T13:15:55.199Z,1.43
2023-01-04T13:18:47.404Z,1.63
2023-01-04T13:21:41.626Z,1.97
2023-01-04T13:24:32.469Z,1.17
2023-01-04T13:27:23.300Z,2.23
2023-01-04T13:30:32.302Z,1.70
2023-01-04T13:33:27.816Z,2.07
2023-01-04T13:36:17.282Z,1.47
2023-01-04T13:39:08.786Z,0.87
2023-01-04T13:41:58.829Z,1.60
2023-01-04T13:45:20.927Z,1.30
2023-01-04T13:48:15.066Z,1.27
2023-01-04T13:51:05.330Z,1.83
2023-01-04T13:53:55.326Z,2.63
2023-01-04T13:56:46.103Z,3.03
2023-01-04T13:59:38.220Z,1.47
2023-01-04T14:02:27.207Z,1.80
2023-01-04T14:05:19.723Z,2.00
2023-01-04T14:08:12.299Z,1.87
2023-01-04T14:11:01.205Z,1.40
2023-01-04T14:13:49.839Z,1.97
2023-01-04T14:16:38.548Z,1.87
2023-01-04T14:19:45.835Z,1.30
2023-01-04T14:22:43.950Z,1.77
2023-01-04T14:25:45.115Z,1.90
2023-01-04T14:28:46.876Z,2.90
2023-01-04T14:31:38.937Z,1.63
2023-01-04T14:34:28.307Z,1.10
2023-01-04T14:37:17.055Z,3.50
2023-01-04T14:40:16.738Z,2.47
2023-01-04T14:43:34.101Z,2.30
2023-01-04T14:46:23.936Z,4.10
2023-01-04T14:49:12.562Z,1.77
2023-01-04T14:52:02.472Z,2.37
2023-01-04T14:54:51.610Z,1.00
2023-01-04T14:57:43.381Z,2.13
2023-01-04T15:00:31.897Z,1.63
2023-01-04T15:03:20.796Z,2.73
2023-01-04T15:06:09.788Z,3.50
2023-01-04T15:08:58.535Z,2.00
2023-01-04T15:11:47.067Z,1.27
2023-01-04T15:14:38.541Z,1.97
2023-01-04T15:17:27.027Z,1.70
2023-01-04T15:20:15.803Z,2.53
2023-01-04T15:23:04.455Z,1.73
2023-01-04T15:25:53.211Z,2.10
2023-01-04T15:28:41.751Z,1.00
2023-01-04T15:31:38.967Z,2.33
2023-01-04T15:34:28.157Z,1.77
2023-01-04T15:37:23.443Z,1.63
2023-01-04T15:40:13.788Z,3.97
2023-01-04T15:43:02.874Z,2.00
2023-01-04T15:45:51.377Z,3.40
2023-01-04T15:48:50.154Z,1.27
2023-01-04T15:51:38.843Z,1.93
2023-01-04T15:54:27.932Z,1.30
2023-01-04T15:57:16.562Z,1.73
2023-01-04T16:00:05.617Z,2.20
2023-01-04T16:03:00.692Z,1.83
2023-01-04T16:05:50.869Z,1.33
2023-01-04T16:08:39.675Z,1.23
2023-01-04T16:11:28.356Z,3.07
2023-01-04T16:14:16.887Z,1.47
2023-01-04T16:17:05.748Z,1.10
2023-01-04T16:19:54.487Z,2.40
2023-01-04T16:22:44.522Z,1.50
2023-01-04T16:25:33.261Z,2.97
2023-01-04T16:28:21.809Z,1.37
2023-01-04T16:31:11.207Z,1.73
2023-01-04T16:34:00.051Z,1.10
2023-01-04T16:36:50.204Z,1.70
2023-01-04T16:42:51.282Z,2.27
2023-01-04T16:45:40.902Z,1.97
2023-01-04T16:48:29.432Z,3.33
2023-01-04T16:51:18.493Z,1.43
2023-01-04T16:54:09.819Z,2.20
2023-01-04T16:56:59.709Z,0.80
2023-01-04T16:59:48.760Z,1.57
2023-01-04T17:02:37.371Z,1.27
2023-01-04T17:05:26.070Z,1.90
2023-01-04T17:08:14.567Z,1.50
2023-01-04T17:11:50.957Z,2.87
2023-01-04T17:14:18.130Z,2.10
2023-01-04T17:17:06.679Z,1.93
2023-01-04T17:19:55.491Z,1.43
2023-01-04T17:22:44.140Z,1.70
2023-01-04T17:25:32.759Z,3.10
2023-01-04T17:28:25.143Z,2.77
2023-01-04T17:31:20.527Z,1.17
2023-01-04T17:34:11.917Z,1.03
2023-01-04T17:37:02.400Z,1.57
2023-01-04T17:39:51.094Z,2.10
2023-01-04T17:42:41.153Z,1.13
2023-01-04T17:45:30.332Z,1.07
2023-01-04T17:48:20.350Z,1.33
2023-01-04T17:51:11.084Z,1.00
2023-01-04T17:54:01.802Z,1.83
2023-01-04T17:56:50.340Z,1.03
2023-01-04T17:59:38.852Z,1.80
2023-01-04T18:02:30.502Z,3.27
2023-01-04T18:05:20.538Z,1.00
2023-01-04T18:08:09.053Z,0.97
2023-01-04T18:11:07.188Z,1.20
2023-01-04T18:13:56.481Z,1.20
2023-01-04T18:16:57.737Z,2.33
2023-01-04T18:19:46.899Z,1.00
2023-01-04T18:22:36.900Z,1.27
2023-01-04T18:25:25.840Z,2.70
2023-01-04T18:28:14.406Z,1.67
2023-01-04T18:31:15.022Z,2.03
2023-01-04T18:34:04.103Z,1.80
2023-01-04T18:36:52.821Z,1.30
2023-01-04T18:39:42.877Z,2.20
2023-01-04T18:42:32.356Z,1.57
2023-01-04T18:45:21.353Z,2.00
2023-01-04T18:48:09.889Z,1.50
2023-01-04T18:51:03.655Z,3.23
2023-01-04T18:53:52.334Z,2.13
2023-01-04T18:56:42.360Z,1.57
2023-01-04T18:59:31.319Z,1.20
2023-01-04T19:02:21.723Z,1.87
2023-01-04T19:05:11.600Z,2.07
2023-01-04T19:08:00.257Z,1.20
2023-01-04T19:10:48.924Z,1.10
2023-01-04T19:13:39.307Z,2.10
2023-01-04T19:16:29.692Z,2.33
2023-01-04T19:19:18.506Z,1.60
2023-01-04T19:22:08.196Z,2.33
2023-01-04T19:24:56.770Z,2.43
2023-01-04T19:27:45.375Z,1.97
2023-01-04T19:30:39.168Z,1.80
2023-01-04T19:33:27.692Z,0.83
2023-01-04T19:36:18.497Z,2.10
2023-01-04T19:39:09.266Z,3.27
2023-01-04T19:41:58.041Z,2.20
2023-01-04T19:44:46.587Z,1.40
2023-01-04T19:47:36.645Z,1.47
2023-01-04T19:50:25.409Z,3.43
2023-01-04T19:53:14.417Z,1.93
2023-01-04T19:56:03.181Z,2.50
2023-01-04T19:58:52.006Z,1.70
2023-01-04T20:01:40.864Z,1.87
2023-01-04T20:04:31.671Z,1.47
2023-01-04T20:07:20.450Z,0.97
2023-01-04T20:10:14.161Z,2.20
2023-01-04T20:13:03.348Z,2.63
2023-01-04T20:15:53.035Z,3.73
2023-01-04T20:18:41.788Z,1.77
2023-01-04T20:21:31.777Z,1.17
2023-01-04T20:24:20.426Z,1.93
2023-01-04T20:27:09.017Z,1.27
2023-01-04T20:29:58.145Z,1.37
2023-01-04T20:32:46.630Z,1.10
2023-01-04T20:35:39.009Z,1.27
2023-01-04T20:38:28.932Z,2.63
2023-01-04T20:41:20.050Z,1.10
2023-01-04T20:44:07.658Z,1.37
2023-01-04T20:46:56.503Z,1.33
2023-01-04T20:49:45.120Z,1.47
2023-01-04T20:52:33.780Z,1.37
2023-01-04T20:55:23.737Z,1.50
2023-01-04T20:58:14.602Z,1.70
2023-01-04T21:01:05.287Z,1.53
2023-01-04T21:03:54.187Z,1.83
2023-01-04T21:06:42.835Z,1.43
2023-01-04T21:09:31.421Z,1.73
2023-01-04T21:12:21.348Z,0.93
2023-01-04T21:15:11.019Z,2.50
2023-01-04T21:17:59.616Z,1.37
2023-01-04T21:20:48.371Z,1.53
2023-01-04T21:23:38.203Z,1.30
2023-01-04T21:26:26.853Z,1.20
2023-01-04T21:29:16.809Z,2.10
2023-01-04T21:32:05.833Z,0.90
2023-01-04T21:34:54.467Z,0.70
2023-01-04T21:37:42.922Z,1.40
2023-01-04T21:40:31.730Z,1.20
2023-01-04T21:43:20.223Z,1.07
2023-01-04T21:46:12.087Z,1.27
2023-01-04T21:49:02.209Z,1.57
2023-01-04T21:51:50.946Z,0.80
2023-01-04T21:54:39.972Z,1.57
2023-01-04T21:57:28.724Z,0.80
2023-01-04T22:00:17.805Z,1.70
2023-01-04T22:03:08.683Z,1.40
2023-01-04T22:06:03.184Z,0.87
2023-01-04T22:08:52.745Z,1.33
2023-01-04T22:11:43.268Z,1.00
2023-01-04T22:14:32.081Z,1.83
2023-01-04T22:17:20.574Z,1.33
2023-01-04T22:20:11.900Z,0.67
2023-01-04T22:23:00.954Z,1.27
2023-01-04T22:25:50.117Z,1.60
2023-01-04T22:28:39.717Z,0.90
2023-01-04T22:31:28.728Z,2.13
2023-01-04T22:34:18.817Z,0.70
2023-01-04T22:37:08.653Z,1.07
2023-01-04T22:39:57.161Z,1.27
2023-01-04T22:42:45.681Z,1.10
2023-01-04T22:45:34.274Z,0.97
2023-01-04T22:48:22.908Z,1.17
2023-01-04T22:51:13.294Z,1.70
2023-01-04T22:54:05.486Z,1.67
2023-01-04T22:56:54.062Z,1.20
2023-01-04T22:59:42.607Z,1.00
2023-01-04T23:02:31.096Z,0.60
2023-01-04T23:05:19.823Z,0.77
2023-01-04T23:08:08.525Z,0.50
2023-01-04T23:10:58.485Z,0.83
2023-01-04T23:13:47.398Z,0.93
2023-01-04T23:16:36.510Z,1.50
2023-01-04T23:19:25.169Z,0.70
2023-01-04T23:22:13.835Z,1.23
2023-01-04T23:25:02.353Z,0.50
2023-01-04T23:27:52.259Z,0.50
2023-01-04T23:30:41.155Z,0.90
2023-01-04T23:33:35.511Z,0.83
2023-01-04T23:36:27.956Z,1.80
2023-01-04T23:39:17.362Z,0.70
2023-01-04T23:42:05.957Z,1.07
2023-01-04T23:44:56.087Z,0.60
2023-01-04T23:47:44.654Z,1.10
2023-01-04T23:50:33.247Z,0.43
2023-01-04T23:53:21.817Z,1.37
2023-01-04T23:56:15.987Z,1.80
2023-01-04T23:59:04.613Z,0.93
